KCOT/COT METAR and TAF weather

Enter ICAO airport designator
Station Type Date Time Source
KCOT METAR 2018/01/19 22:53 UTC NOAA

KCOT 192253Z AUTO 10003KT 10SM OVC010 10/07 A3008 RMK AO2 SLP184 T01000072


Station Type Date Time Source
KCOT Decoded METAR 2018/01/19 22:53 UTC NOAA

COTULLA-LASALLE COUNTY AIRPORT , TX, United States (KCOT) 28-27N 099-13W 140M
Jan 19, 2018 - 05:53 PM EST / 2018.01.19 2253 UTC
Wind: from the E (100 degrees) at 3 MPH (3 KT):0
Visibility: 10 mile(s):0
Sky conditions: overcast
Temperature: 50.0 F (10.0 C)
Dew Point: 45.0 F (7.2 C)
Relative Humidity: 82%
Pressure (altimeter): 30.08 in. Hg (1018 hPa)
ob: KCOT 192253Z AUTO 10003KT 10SM OVC010 10/07 A3008 RMK AO2 SLP184 T01000072
cycle: 23

Station Type Date Time Source
KCOT TAF UTC NOAA

Error!


Example: see airport list